createdAt,value
2023-01-05T00:00:08.964Z,0.60
2023-01-05T00:03:02.239Z,0.63
2023-01-05T00:05:49.666Z,0.77
2023-01-05T00:08:37.973Z,0.50
2023-01-05T00:11:45.524Z,0.50
2023-01-05T00:17:55.568Z,0.80
2023-01-05T00:21:00.358Z,0.57
2023-01-05T00:23:47.549Z,0.57
2023-01-05T00:26:36.269Z,0.80
2023-01-05T00:29:23.329Z,0.65
2023-01-05T00:32:11.667Z,0.80
2023-01-05T00:34:59.635Z,1.25
2023-01-05T00:37:48.229Z,1.40
2023-01-05T00:40:36.961Z,2.22
2023-01-05T00:43:25.697Z,2.38
2023-01-05T00:46:13.172Z,1.60
2023-01-05T00:49:00.608Z,2.05
2023-01-05T00:51:47.847Z,4.20
2023-01-05T00:54:35.332Z,3.08
2023-01-05T00:57:22.547Z,1.60
2023-01-05T01:00:17.147Z,2.22
2023-01-05T01:03:04.685Z,1.80
2023-01-05T01:05:58.031Z,0.80
2023-01-05T01:08:45.376Z,0.65
2023-01-05T01:11:32.521Z,0.68
2023-01-05T01:14:20.186Z,0.35
2023-01-05T01:17:10.975Z,0.30
2023-01-05T01:19:58.028Z,0.38
2023-01-05T01:22:45.180Z,0.45
2023-01-05T01:25:32.775Z,0.82
2023-01-05T01:28:20.151Z,0.47
2023-01-05T01:31:07.728Z,0.60
2023-01-05T01:33:56.285Z,0.40
2023-01-05T01:36:44.260Z,0.47
2023-01-05T01:39:33.922Z,0.57
2023-01-05T01:42:25.602Z,0.57
2023-01-05T01:45:20.184Z,0.77
2023-01-05T01:48:10.243Z,0.93
2023-01-05T01:51:07.745Z,0.65
2023-01-05T01:53:59.178Z,0.63
2023-01-05T01:56:51.343Z,0.55
2023-01-05T01:59:38.679Z,0.52
2023-01-05T02:02:28.325Z,0.70
2023-01-05T02:05:17.763Z,0.60
2023-01-05T02:08:12.624Z,0.68
2023-01-05T02:11:15.333Z,0.80
2023-01-05T02:14:16.539Z,0.70
2023-01-05T02:17:15.089Z,1.00
2023-01-05T02:20:26.023Z,0.60
2023-01-05T02:23:46.218Z,0.50
2023-01-05T02:27:13.393Z,0.80
2023-01-05T02:30:34.920Z,0.60
2023-01-05T02:33:33.079Z,0.90
2023-01-05T02:36:29.246Z,0.85
2023-01-05T02:39:27.890Z,0.60
2023-01-05T02:42:19.263Z,0.85
2023-01-05T02:45:08.605Z,0.70
2023-01-05T02:47:55.847Z,0.60
2023-01-05T02:50:50.007Z,0.60
2023-01-05T02:53:40.595Z,0.52
2023-01-05T02:56:33.950Z,1.02
2023-01-05T02:59:27.930Z,0.55
2023-01-05T03:02:20.913Z,0.90
2023-01-05T03:05:16.869Z,0.80
2023-01-05T03:08:10.547Z,0.80
2023-01-05T03:11:25.941Z,0.82
2023-01-05T03:14:18.057Z,0.90
2023-01-05T03:17:09.424Z,0.90
2023-01-05T03:20:02.726Z,0.80
2023-01-05T03:23:10.132Z,1.00
2023-01-05T03:26:17.205Z,1.38
2023-01-05T03:29:22.540Z,1.00
2023-01-05T03:32:39.241Z,0.90
2023-01-05T03:35:33.736Z,1.20
2023-01-05T03:38:28.146Z,1.33
2023-01-05T03:41:18.877Z,1.02
2023-01-05T03:44:06.964Z,1.90
2023-01-05T03:46:58.121Z,1.20
2023-01-05T03:49:45.829Z,0.50
2023-01-05T03:52:33.706Z,0.65
2023-01-05T03:55:21.262Z,0.40
2023-01-05T03:58:13.404Z,0.60
2023-01-05T04:01:05.897Z,0.50
2023-01-05T04:03:53.641Z,0.52
2023-01-05T04:06:41.561Z,0.50
2023-01-05T04:09:30.630Z,0.60
2023-01-05T04:12:17.928Z,0.57
2023-01-05T04:15:08.628Z,0.40
2023-01-05T04:17:56.742Z,0.40
2023-01-05T04:20:43.953Z,0.43
2023-01-05T04:23:31.204Z,0.57
2023-01-05T04:26:18.518Z,0.45
2023-01-05T04:29:11.477Z,0.40
2023-01-05T04:32:00.964Z,0.40
2023-01-05T04:34:48.611Z,0.70
2023-01-05T04:37:37.623Z,0.70
2023-01-05T04:40:24.866Z,0.70
2023-01-05T04:43:14.311Z,0.50
2023-01-05T04:46:02.609Z,0.70
2023-01-05T04:48:52.445Z,0.73
2023-01-05T04:51:41.707Z,0.70
2023-01-05T04:54:30.519Z,0.70
2023-01-05T04:57:18.803Z,0.60
2023-01-05T05:00:12.352Z,1.00
2023-01-05T05:02:59.830Z,1.38
2023-01-05T05:05:49.015Z,0.88
2023-01-05T05:08:37.379Z,0.90
2023-01-05T05:11:25.073Z,0.85
2023-01-05T05:14:12.544Z,0.80
2023-01-05T05:17:00.336Z,0.85
2023-01-05T05:19:50.094Z,0.80
2023-01-05T05:22:41.749Z,1.00
2023-01-05T05:25:30.609Z,0.65
2023-01-05T05:28:17.934Z,1.15
2023-01-05T05:31:05.343Z,0.60
2023-01-05T05:33:52.627Z,0.57
2023-01-05T05:36:39.614Z,0.70
2023-01-05T05:39:28.172Z,0.82
2023-01-05T05:42:15.674Z,0.63
2023-01-05T05:45:02.865Z,0.77
2023-01-05T05:47:50.112Z,0.50
2023-01-05T05:50:37.460Z,0.50
2023-01-05T05:53:26.334Z,0.85
2023-01-05T05:56:14.614Z,0.50
2023-01-05T05:59:02.124Z,0.70
2023-01-05T06:01:49.429Z,0.82
2023-01-05T06:04:36.771Z,0.65
2023-01-05T06:07:23.986Z,0.70
2023-01-05T06:10:11.836Z,0.73
2023-01-05T06:13:00.411Z,1.27
2023-01-05T06:15:47.768Z,0.93
2023-01-05T06:18:34.893Z,1.00
2023-01-05T06:21:22.393Z,0.65
2023-01-05T06:24:09.795Z,0.77
2023-01-05T06:26:57.334Z,0.80
2023-01-05T06:29:45.956Z,0.77
2023-01-05T06:32:33.519Z,1.10
2023-01-05T06:35:20.718Z,0.70
2023-01-05T06:38:08.373Z,0.77
2023-01-05T06:40:55.606Z,0.80
2023-01-05T06:43:43.048Z,1.20
2023-01-05T06:46:31.844Z,1.60
2023-01-05T06:49:19.134Z,1.15
2023-01-05T06:52:10.820Z,1.20
2023-01-05T06:55:01.467Z,1.10
2023-01-05T06:57:48.850Z,0.80
2023-01-05T07:00:36.467Z,1.13
2023-01-05T07:03:26.018Z,1.00
2023-01-05T07:06:15.515Z,1.00
2023-01-05T07:09:03.269Z,0.98
2023-01-05T07:11:50.323Z,0.93
2023-01-05T07:14:38.225Z,1.08
2023-01-05T07:17:25.438Z,1.23
2023-01-05T07:20:13.903Z,0.85
2023-01-05T07:23:01.097Z,1.17
2023-01-05T07:25:48.374Z,1.10
2023-01-05T07:28:36.187Z,1.15
2023-01-05T07:31:23.472Z,1.00
2023-01-05T07:34:11.387Z,0.90
2023-01-05T07:37:00.134Z,1.08
2023-01-05T07:39:47.316Z,1.23
2023-01-05T07:42:35.099Z,1.10
2023-01-05T07:45:23.584Z,1.35
2023-01-05T07:48:11.182Z,1.23
2023-01-05T07:51:02.593Z,1.50
2023-01-05T07:53:51.466Z,1.40
2023-01-05T07:56:39.082Z,1.83
2023-01-05T07:59:26.284Z,1.95
2023-01-05T08:02:13.579Z,1.75
2023-01-05T08:05:00.914Z,1.88
2023-01-05T08:07:48.151Z,1.30
2023-01-05T08:10:38.743Z,1.50
2023-01-05T08:13:43.350Z,1.48
2023-01-05T08:16:32.232Z,1.60
2023-01-05T08:19:20.421Z,2.08
2023-01-05T08:22:07.972Z,1.80
2023-01-05T08:24:55.449Z,1.40
2023-01-05T08:27:44.355Z,1.58
2023-01-05T08:30:32.437Z,1.67
2023-01-05T08:33:19.608Z,1.40
2023-01-05T08:36:09.825Z,1.70
2023-01-05T08:38:56.981Z,1.55
2023-01-05T08:41:44.451Z,1.92
2023-01-05T08:44:33.326Z,3.03
2023-01-05T08:47:24.945Z,2.10
2023-01-05T08:50:15.562Z,2.65
2023-01-05T08:53:02.722Z,1.90
2023-01-05T08:55:49.877Z,1.58
2023-01-05T08:58:37.580Z,1.77
2023-01-05T09:01:26.639Z,1.60
2023-01-05T09:04:13.719Z,1.42
2023-01-05T09:07:00.907Z,1.50
2023-01-05T09:09:48.417Z,1.60
2023-01-05T09:12:36.604Z,1.20
2023-01-05T09:15:24.075Z,1.65
2023-01-05T09:18:12.645Z,1.90
2023-01-05T09:20:59.908Z,1.60
2023-01-05T09:23:47.249Z,1.75
2023-01-05T09:26:34.762Z,2.13
2023-01-05T09:29:22.388Z,1.50
2023-01-05T09:32:11.459Z,2.17
2023-01-05T09:34:59.999Z,2.55
2023-01-05T09:37:47.729Z,1.70
2023-01-05T09:40:41.054Z,2.20
2023-01-05T09:43:31.225Z,1.80
2023-01-05T09:46:21.921Z,1.55
2023-01-05T09:49:14.162Z,2.20
2023-01-05T09:52:09.197Z,2.08
2023-01-05T09:54:57.311Z,2.10
2023-01-05T09:57:52.951Z,1.85
2023-01-05T10:00:44.357Z,1.85
2023-01-05T10:04:02.392Z,1.98
2023-01-05T10:06:47.798Z,1.70
2023-01-05T10:09:39.343Z,1.70
2023-01-05T10:12:50.835Z,1.92
2023-01-05T10:15:41.914Z,2.33
2023-01-05T10:18:31.991Z,1.88
2023-01-05T10:21:27.662Z,2.28
2023-01-05T10:24:26.364Z,2.25
2023-01-05T10:27:25.613Z,1.90
2023-01-05T10:30:22.966Z,2.30
2023-01-05T10:33:40.222Z,0.95
2023-01-05T10:40:10.948Z,0.88
2023-01-05T10:43:25.828Z,0.60
2023-01-05T10:46:35.423Z,0.80
2023-01-05T10:49:26.724Z,0.60
2023-01-05T10:52:16.230Z,0.50
2023-01-05T10:55:12.801Z,0.43
2023-01-05T10:58:00.319Z,0.30
2023-01-05T11:00:49.336Z,0.40
2023-01-05T11:04:23.999Z,0.40
2023-01-05T11:06:48.538Z,0.43
2023-01-05T11:09:41.081Z,0.68
2023-01-05T11:12:28.776Z,0.40
2023-01-05T11:15:19.515Z,0.20
2023-01-05T11:18:25.375Z,0.30
2023-01-05T11:21:15.685Z,0.47
2023-01-05T11:24:04.687Z,0.40
2023-01-05T11:26:54.214Z,0.43
2023-01-05T11:29:41.296Z,0.45
2023-01-05T11:32:28.564Z,0.30
2023-01-05T11:35:24.317Z,0.20
2023-01-05T11:38:23.305Z,0.63
2023-01-05T11:41:14.182Z,0.60
2023-01-05T11:44:03.257Z,1.05
2023-01-05T11:46:51.457Z,1.08
2023-01-05T11:49:38.841Z,0.70
2023-01-05T11:52:33.644Z,0.55
2023-01-05T11:55:31.567Z,0.50
2023-01-05T11:58:25.542Z,1.20
2023-01-05T12:01:45.668Z,0.50
2023-01-05T12:05:04.856Z,0.73
2023-01-05T12:07:59.441Z,0.68
2023-01-05T12:11:07.324Z,0.40
2023-01-05T12:14:17.307Z,0.63
2023-01-05T12:17:13.741Z,0.75
2023-01-05T12:20:12.474Z,0.85
2023-01-05T12:23:27.683Z,0.60
2023-01-05T12:26:22.507Z,0.75
2023-01-05T12:36:31.303Z,0.75
2023-01-05T12:39:41.435Z,0.80
2023-01-05T12:42:57.984Z,1.27
2023-01-05T12:46:14.034Z,1.40
2023-01-05T12:49:04.340Z,0.90
2023-01-05T12:52:01.023Z,1.40
2023-01-05T12:54:59.351Z,1.05
2023-01-05T12:57:49.756Z,1.05
2023-01-05T13:00:42.427Z,1.27
2023-01-05T13:03:34.941Z,0.80
2023-01-05T13:06:25.718Z,1.00
2023-01-05T13:09:18.112Z,1.00
2023-01-05T13:12:10.020Z,1.10
2023-01-05T13:15:07.620Z,1.10
2023-01-05T13:17:57.792Z,0.80
2023-01-05T13:20:50.685Z,1.38
2023-01-05T13:23:42.985Z,1.02
2023-01-05T13:26:37.498Z,0.98
2023-01-05T13:29:31.803Z,1.33
2023-01-05T13:32:41.821Z,1.20
2023-01-05T13:36:04.148Z,0.93
2023-01-05T13:39:33.345Z,1.20
2023-01-05T13:42:33.337Z,1.08
2023-01-05T13:46:01.409Z,1.48
2023-01-05T13:49:12.150Z,1.35
2023-01-05T13:52:01.238Z,1.52
2023-01-05T13:55:01.544Z,6.03
2023-01-05T13:57:50.729Z,1.05
2023-01-05T14:00:43.057Z,1.13
2023-01-05T14:03:36.311Z,0.80
2023-01-05T14:06:26.727Z,1.27
2023-01-05T14:09:19.169Z,1.33
2023-01-05T14:12:27.287Z,1.60
2023-01-05T14:15:39.794Z,2.15
2023-01-05T14:19:12.215Z,1.80
2023-01-05T14:22:32.705Z,1.27
2023-01-05T14:25:49.727Z,1.50
2023-01-05T14:28:49.066Z,1.42
2023-01-05T14:31:39.011Z,1.30
2023-01-05T14:34:29.677Z,1.15
2023-01-05T14:37:23.274Z,1.65
2023-01-05T14:40:26.041Z,1.35
2023-01-05T14:43:27.307Z,0.95
2023-01-05T14:46:16.244Z,1.20
2023-01-05T14:49:08.599Z,1.10
2023-01-05T14:51:59.733Z,0.80
2023-01-05T14:55:21.860Z,1.23
2023-01-05T14:58:16.474Z,0.88
2023-01-05T15:01:14.981Z,1.23
2023-01-05T15:04:07.965Z,1.55
2023-01-05T15:07:18.534Z,1.55
2023-01-05T15:10:23.474Z,0.70
2023-01-05T15:13:35.291Z,0.65
2023-01-05T15:16:31.264Z,1.27
2023-01-05T15:19:36.596Z,1.30
2023-01-05T15:22:42.322Z,1.58
2023-01-05T15:25:53.157Z,1.38
2023-01-05T15:29:11.260Z,1.27
2023-01-05T15:32:03.187Z,0.90
2023-01-05T15:34:55.715Z,1.45
2023-01-05T15:37:47.217Z,0.98
2023-01-05T15:40:35.025Z,1.00
2023-01-05T15:43:22.463Z,1.10
2023-01-05T15:46:11.115Z,1.05
2023-01-05T15:48:59.677Z,1.15
2023-01-05T15:51:52.231Z,1.45
2023-01-05T15:54:41.345Z,2.40
2023-01-05T15:57:28.705Z,1.30
2023-01-05T16:00:18.596Z,1.00
2023-01-05T16:03:21.284Z,1.48
2023-01-05T16:06:12.411Z,0.70
2023-01-05T16:09:08.423Z,1.67
2023-01-05T16:12:01.289Z,1.27
2023-01-05T16:14:48.778Z,0.88
2023-01-05T16:17:38.312Z,1.27
2023-01-05T16:20:26.893Z,0.95
2023-01-05T16:23:18.080Z,1.02
2023-01-05T16:26:05.827Z,0.80
2023-01-05T16:28:54.722Z,1.70
2023-01-05T16:31:53.996Z,1.08
2023-01-05T16:34:41.193Z,1.48
2023-01-05T16:37:29.405Z,0.90
2023-01-05T16:40:21.315Z,0.90
2023-01-05T16:43:19.784Z,1.20
2023-01-05T16:46:29.089Z,1.10
2023-01-05T16:49:38.952Z,1.20
2023-01-05T16:52:39.055Z,0.70
2023-01-05T16:55:35.590Z,1.08
2023-01-05T16:58:38.333Z,0.90
2023-01-05T17:01:35.813Z,0.98
2023-01-05T17:04:23.428Z,0.82
2023-01-05T17:07:11.217Z,1.02
2023-01-05T17:09:58.885Z,1.25
2023-01-05T17:12:48.725Z,0.80
2023-01-05T17:15:37.685Z,0.90
2023-01-05T17:18:27.460Z,1.35
2023-01-05T17:21:18.749Z,1.15
2023-01-05T17:24:06.675Z,0.90
2023-01-05T17:26:54.181Z,1.25
2023-01-05T17:29:41.521Z,1.80
2023-01-05T17:32:29.037Z,1.60
2023-01-05T17:35:19.929Z,1.52
2023-01-05T17:38:07.561Z,1.30
2023-01-05T17:40:54.833Z,1.35
2023-01-05T17:46:37.586Z,0.90
2023-01-05T17:49:24.683Z,1.10
2023-01-05T17:52:14.032Z,1.05
2023-01-05T17:55:02.234Z,1.00
2023-01-05T17:57:50.328Z,1.30
2023-01-05T18:00:41.772Z,1.92
2023-01-05T18:03:28.897Z,1.40
2023-01-05T18:06:16.403Z,1.30
2023-01-05T18:09:05.462Z,1.70
2023-01-05T18:11:52.988Z,1.90
2023-01-05T18:14:40.423Z,1.40
2023-01-05T18:17:27.982Z,1.25
2023-01-05T18:20:17.701Z,1.73
2023-01-05T18:23:07.734Z,0.90
2023-01-05T18:25:56.590Z,1.10
2023-01-05T18:28:43.694Z,0.80
2023-01-05T18:31:31.153Z,0.75
2023-01-05T18:34:18.154Z,0.80
2023-01-05T18:37:06.709Z,0.82
2023-01-05T18:39:58.173Z,0.90
2023-01-05T18:42:46.795Z,1.25
2023-01-05T18:45:41.261Z,0.93
2023-01-05T18:48:28.713Z,0.60
2023-01-05T18:51:16.158Z,1.45
2023-01-05T18:54:03.385Z,1.08
2023-01-05T18:56:50.680Z,1.02
2023-01-05T18:59:39.452Z,1.27
2023-01-05T19:02:27.591Z,1.13
2023-01-05T19:05:14.731Z,1.00
2023-01-05T19:08:02.099Z,0.95
2023-01-05T19:10:49.520Z,1.00
2023-01-05T19:13:36.916Z,1.40
2023-01-05T19:16:27.655Z,0.77
2023-01-05T19:19:15.785Z,0.98
2023-01-05T19:22:04.239Z,1.00
2023-01-05T19:24:51.351Z,1.13
2023-01-05T19:27:38.749Z,1.23
2023-01-05T19:30:26.211Z,0.93
2023-01-05T19:33:15.008Z,2.03
2023-01-05T19:36:04.806Z,1.00
2023-01-05T19:38:52.295Z,0.57
2023-01-05T19:41:41.057Z,1.00
2023-01-05T19:44:28.827Z,0.60
2023-01-05T19:47:16.378Z,0.80
2023-01-05T19:50:05.388Z,0.95
2023-01-05T19:52:53.675Z,0.75
2023-01-05T19:55:40.882Z,0.93
2023-01-05T19:58:28.471Z,0.90
2023-01-05T20:01:17.219Z,1.05
2023-01-05T20:04:04.743Z,1.00
2023-01-05T20:06:53.501Z,1.58
2023-01-05T20:09:41.076Z,1.00
2023-01-05T20:12:28.189Z,0.90
2023-01-05T20:15:15.600Z,0.98
2023-01-05T20:18:03.191Z,0.95
2023-01-05T20:20:50.858Z,1.00
2023-01-05T20:23:41.262Z,0.88
2023-01-05T20:26:30.594Z,1.13
2023-01-05T20:29:19.951Z,1.00
2023-01-05T20:32:09.562Z,1.13
2023-01-05T20:34:59.695Z,0.82
2023-01-05T20:37:47.240Z,0.80
2023-01-05T20:40:35.949Z,1.15
2023-01-05T20:43:23.484Z,0.85
2023-01-05T20:46:11.437Z,0.70
2023-01-05T20:48:59.107Z,0.90
2023-01-05T20:51:47.000Z,0.77
2023-01-05T20:54:34.383Z,2.05
2023-01-05T20:57:23.357Z,1.13
2023-01-05T21:00:13.978Z,1.33
2023-01-05T21:03:01.238Z,0.90
2023-01-05T21:05:48.650Z,0.90
2023-01-05T21:08:36.516Z,0.60
2023-01-05T21:11:26.053Z,0.52
2023-01-05T21:14:15.474Z,0.82
2023-01-05T21:17:02.841Z,0.50
2023-01-05T21:19:50.138Z,0.45
2023-01-05T21:22:37.697Z,0.90
2023-01-05T21:25:25.705Z,0.75
2023-01-05T21:28:13.504Z,0.70
2023-01-05T21:31:05.807Z,0.90
2023-01-05T21:33:54.318Z,0.70
2023-01-05T21:36:45.411Z,0.80
2023-01-05T21:39:32.837Z,0.70
2023-01-05T21:42:37.433Z,1.13
2023-01-05T21:45:25.542Z,0.93
2023-01-05T21:48:14.066Z,1.45
2023-01-05T21:51:19.265Z,1.40
2023-01-05T21:54:24.305Z,1.48
2023-01-05T21:57:12.316Z,0.95
2023-01-05T21:59:59.646Z,0.80
2023-01-05T22:02:47.177Z,1.02
2023-01-05T22:05:35.951Z,0.80
2023-01-05T22:08:24.939Z,1.17
2023-01-05T22:11:12.700Z,1.10
2023-01-05T22:13:59.946Z,1.40
2023-01-05T22:16:47.364Z,1.20
2023-01-05T22:19:35.041Z,1.25
2023-01-05T22:22:24.062Z,1.08
2023-01-05T22:25:11.559Z,1.00
2023-01-05T22:28:02.144Z,1.25
2023-01-05T22:30:49.787Z,1.30
2023-01-05T22:33:39.281Z,1.20
2023-01-05T22:36:28.421Z,1.38
2023-01-05T22:39:17.744Z,1.40
2023-01-05T22:42:05.008Z,2.00
2023-01-05T22:44:52.528Z,1.42
2023-01-05T22:47:39.840Z,1.42
2023-01-05T22:50:27.019Z,1.20
2023-01-05T22:53:14.636Z,1.35
2023-01-05T22:56:03.528Z,1.52
2023-01-05T22:58:50.651Z,1.35
2023-01-05T23:01:39.672Z,1.30
2023-01-05T23:04:27.247Z,1.00
2023-01-05T23:07:17.295Z,1.42
2023-01-05T23:10:04.724Z,1.00
2023-01-05T23:12:53.434Z,0.75
2023-01-05T23:15:40.745Z,1.40
2023-01-05T23:18:28.463Z,1.30
2023-01-05T23:21:17.118Z,1.33
2023-01-05T23:24:04.672Z,1.38
2023-01-05T23:26:52.276Z,1.30
2023-01-05T23:29:41.230Z,1.30
2023-01-05T23:32:28.696Z,1.23
2023-01-05T23:35:15.994Z,1.17
2023-01-05T23:38:03.571Z,1.02
2023-01-05T23:40:52.798Z,1.20
2023-01-05T23:43:41.754Z,1.15
2023-01-05T23:46:30.719Z,1.15
2023-01-05T23:49:17.919Z,1.05
2023-01-05T23:52:05.643Z,0.90
2023-01-05T23:54:53.356Z,1.65
2023-01-05T23:57:41.129Z,1.02
